createdAt,value
2022-09-04T00:01:05.639Z,16.40
2022-09-04T00:03:46.495Z,17.20
2022-09-04T00:06:25.359Z,15.10
2022-09-04T00:09:12.597Z,17.30
2022-09-04T00:11:51.202Z,17.20
2022-09-04T00:14:30.047Z,16.90
2022-09-04T00:17:04.284Z,17.20
2022-09-04T00:19:43.775Z,14.60
2022-09-04T00:24:20.836Z,17.40
2022-09-04T00:45:09.870Z,15.90
2022-09-04T00:48:12.497Z,14.60
2022-09-04T00:51:20.787Z,17.20
2022-09-04T00:54:42.927Z,17.20
2022-09-04T00:58:08.561Z,17.30
2022-09-04T01:00:40.382Z,17.40
2022-09-04T01:04:04.478Z,17.30
2022-09-04T01:06:48.159Z,17.20
2022-09-04T01:09:45.403Z,17.40
2022-09-04T01:12:33.765Z,17.30
2022-09-04T01:15:15.873Z,15.70
2022-09-04T01:17:59.904Z,17.40
2022-09-04T01:20:53.261Z,17.50
2022-09-04T01:24:04.269Z,14.70
2022-09-04T01:26:48.118Z,17.40
2022-09-04T01:29:32.659Z,13.90
2022-09-04T01:32:11.863Z,14.50
2022-09-04T01:34:52.811Z,17.30
2022-09-04T01:37:43.236Z,17.20
2022-09-04T01:40:36.035Z,17.40
2022-09-04T01:43:12.187Z,17.30
2022-09-04T01:46:19.380Z,16.50
2022-09-04T01:48:55.713Z,14.30
2022-09-04T01:51:34.469Z,16.30
2022-09-04T01:54:21.745Z,16.40
2022-09-04T01:57:08.005Z,13.90
2022-09-04T01:59:53.881Z,16.70
2022-09-04T02:02:30.669Z,17.20
2022-09-04T02:05:11.201Z,16.10
2022-09-04T02:07:49.370Z,17.10
2022-09-04T02:10:38.789Z,17.20
2022-09-04T02:13:22.466Z,13.60
2022-09-04T02:16:14.971Z,15.30
2022-09-04T02:19:00.924Z,15.10
2022-09-04T02:21:37.682Z,16.90
2022-09-04T02:24:18.914Z,16.00
2022-09-04T02:26:59.323Z,16.90
2022-09-04T02:29:36.291Z,16.70
2022-09-04T02:32:19.751Z,16.80
2022-09-04T02:34:59.837Z,16.70
2022-09-04T02:37:39.393Z,16.70
2022-09-04T02:40:20.239Z,16.70
2022-09-04T02:43:07.570Z,16.10
2022-09-04T02:45:50.700Z,16.50
2022-09-04T02:48:35.360Z,16.60
2022-09-04T02:51:25.415Z,16.50
2022-09-04T02:54:08.322Z,13.60
2022-09-04T02:56:49.889Z,16.00
2022-09-04T02:59:42.641Z,16.40
2022-09-04T03:02:24.255Z,16.30
2022-09-04T03:05:06.106Z,16.40
2022-09-04T03:07:39.309Z,15.20
2022-09-04T03:10:16.726Z,16.00
2022-09-04T03:12:54.328Z,13.10
2022-09-04T03:15:35.142Z,14.00
2022-09-04T03:18:16.933Z,16.40
2022-09-04T03:20:56.389Z,14.00
2022-09-04T03:23:35.819Z,15.90
2022-09-04T03:26:19.855Z,15.40
2022-09-04T03:29:04.203Z,14.30
2022-09-04T03:31:44.796Z,12.50
2022-09-04T03:34:34.389Z,16.40
2022-09-04T03:37:23.994Z,16.50
2022-09-04T03:40:13.819Z,16.40
2022-09-04T03:43:04.188Z,16.30
2022-09-04T03:45:50.159Z,16.20
2022-09-04T03:48:41.151Z,16.30
2022-09-04T03:51:25.823Z,12.90
2022-09-04T03:54:24.459Z,16.30
2022-09-04T03:57:20.894Z,16.30
2022-09-04T04:00:06.330Z,13.50
2022-09-04T04:03:02.736Z,16.30
2022-09-04T04:05:43.509Z,13.20
2022-09-04T04:08:43.322Z,13.90
2022-09-04T04:11:35.206Z,15.90
2022-09-04T04:14:40.139Z,16.30
2022-09-04T04:17:41.493Z,16.30
2022-09-04T04:20:30.860Z,16.20
2022-09-04T04:23:57.026Z,16.30
2022-09-04T04:26:51.650Z,16.30
2022-09-04T04:30:06.850Z,16.20
2022-09-04T04:33:16.849Z,16.10
2022-09-04T04:36:01.721Z,16.00
2022-09-04T04:38:48.134Z,16.10
2022-09-04T04:41:56.294Z,15.90
2022-09-04T04:44:54.459Z,16.00
2022-09-04T04:47:43.947Z,15.90
2022-09-04T04:50:27.361Z,15.90
2022-09-04T04:53:06.338Z,15.90
2022-09-04T04:55:49.635Z,16.00
2022-09-04T04:58:57.275Z,16.10
2022-09-04T05:01:43.597Z,16.10
2022-09-04T05:04:24.260Z,16.00
2022-09-04T05:07:01.190Z,16.00
2022-09-04T05:09:45.873Z,16.00
2022-09-04T05:12:29.284Z,16.00
2022-09-04T05:15:09.981Z,15.80
2022-09-04T05:17:51.525Z,15.90
2022-09-04T05:20:34.685Z,16.00
2022-09-04T05:23:19.725Z,15.80
2022-09-04T05:26:01.848Z,14.40
2022-09-04T05:28:49.318Z,16.00
2022-09-04T05:31:38.088Z,15.10
2022-09-04T05:34:15.716Z,16.00
2022-09-04T05:36:58.737Z,16.10
2022-09-04T05:39:32.983Z,16.20
2022-09-04T05:42:22.736Z,16.20
2022-09-04T05:45:08.729Z,16.10
2022-09-04T05:47:55.682Z,15.10
2022-09-04T05:51:05.283Z,16.10
2022-09-04T05:54:14.415Z,16.10
2022-09-04T05:57:23.594Z,16.20
2022-09-04T06:00:16.276Z,16.20
2022-09-04T06:03:23.144Z,16.20
2022-09-04T06:06:23.791Z,16.10
2022-09-04T06:09:28.502Z,16.20
2022-09-04T06:12:26.033Z,16.60
2022-09-04T06:15:21.681Z,14.90
2022-09-04T06:18:16.131Z,16.70
2022-09-04T06:21:14.316Z,15.70
2022-09-04T06:24:12.697Z,15.90
2022-09-04T06:27:06.513Z,17.40
2022-09-04T06:30:08.816Z,16.80
2022-09-04T06:33:22.535Z,17.40
2022-09-04T06:36:22.273Z,17.00
2022-09-04T06:39:30.777Z,17.60
2022-09-04T06:42:17.155Z,17.70
2022-09-04T06:45:06.775Z,17.90
2022-09-04T06:47:58.463Z,18.00
2022-09-04T06:50:39.930Z,18.20
2022-09-04T06:53:23.079Z,18.00
2022-09-04T06:56:13.163Z,17.50
2022-09-04T06:59:53.868Z,18.50
2022-09-04T07:03:02.794Z,16.90
2022-09-04T07:05:41.534Z,17.90
2022-09-04T07:08:27.749Z,18.90
2022-09-04T07:11:16.540Z,19.10
2022-09-04T07:14:17.573Z,19.30
2022-09-04T07:17:01.216Z,19.20
2022-09-04T07:20:09.224Z,19.50
2022-09-04T07:23:22.283Z,19.90
2022-09-04T07:26:08.039Z,20.10
2022-09-04T07:29:12.428Z,20.20
2022-09-04T07:31:52.407Z,20.60
2022-09-04T07:34:29.038Z,20.70
2022-09-04T07:37:04.638Z,21.00
2022-09-04T07:39:46.805Z,21.20
2022-09-04T07:42:28.193Z,21.40
2022-09-04T07:45:08.041Z,21.50
2022-09-04T07:47:44.324Z,21.20
2022-09-04T07:50:19.624Z,22.10
2022-09-04T07:53:27.706Z,22.00
2022-09-04T07:56:14.050Z,22.50
2022-09-04T07:59:21.464Z,22.80
2022-09-04T08:02:23.461Z,23.40
2022-09-04T08:05:19.778Z,23.30
2022-09-04T08:08:19.173Z,23.80
2022-09-04T08:11:17.145Z,24.50
2022-09-04T08:14:42.543Z,24.60
2022-09-04T08:18:07.268Z,24.90
2022-09-04T08:20:47.085Z,25.20
2022-09-04T08:24:02.342Z,25.60
2022-09-04T08:26:49.841Z,26.00
2022-09-04T08:29:49.005Z,26.40
2022-09-04T08:32:48.770Z,26.50
2022-09-04T08:35:28.151Z,26.80
2022-09-04T08:38:23.629Z,27.20
2022-09-04T08:41:48.407Z,27.20
2022-09-04T08:45:13.273Z,27.30
2022-09-04T08:48:38.957Z,26.90
2022-09-04T08:51:58.079Z,26.60
2022-09-04T08:54:59.167Z,26.40
2022-09-04T08:58:12.615Z,26.70
2022-09-04T09:01:06.869Z,26.90
2022-09-04T09:04:08.420Z,27.40
2022-09-04T09:07:48.343Z,28.00
2022-09-04T09:10:44.155Z,28.00
2022-09-04T09:14:13.204Z,28.30
2022-09-04T09:16:46.579Z,28.40
2022-09-04T09:19:44.524Z,28.40
2022-09-04T09:22:38.954Z,28.20
2022-09-04T09:25:21.348Z,27.70
2022-09-04T09:28:49.343Z,27.80
2022-09-04T09:32:16.628Z,28.10
2022-09-04T09:38:36.269Z,28.10
2022-09-04T09:41:59.684Z,28.00
2022-09-04T09:45:26.946Z,28.30
2022-09-04T09:48:44.786Z,29.30
2022-09-04T09:51:55.532Z,29.60
2022-09-04T09:55:29.291Z,29.80
2022-09-04T09:58:54.417Z,30.10
2022-09-04T10:02:05.891Z,30.20
2022-09-04T10:05:19.509Z,30.20
2022-09-04T10:08:36.123Z,29.40
2022-09-04T10:11:59.705Z,28.70
2022-09-04T10:15:29.073Z,28.30
2022-09-04T10:18:47.773Z,28.80
2022-09-04T10:22:05.566Z,28.60
2022-09-04T10:25:13.956Z,28.60
2022-09-04T10:28:15.755Z,28.10
2022-09-04T10:31:21.254Z,28.90
2022-09-04T10:34:15.816Z,29.20
2022-09-04T10:37:00.130Z,29.60
2022-09-04T10:40:03.597Z,30.00
2022-09-04T10:42:50.922Z,30.30
2022-09-04T10:45:27.659Z,30.80
2022-09-04T10:48:31.103Z,31.10
2022-09-04T10:51:51.347Z,31.20
2022-09-04T10:55:03.630Z,30.00
2022-09-04T10:58:06.296Z,30.40
2022-09-04T11:00:51.390Z,31.10
2022-09-04T11:03:48.710Z,31.60
2022-09-04T11:07:10.841Z,32.10
2022-09-04T11:10:30.066Z,32.30
2022-09-04T11:13:51.664Z,32.70
2022-09-04T11:17:19.792Z,32.30
2022-09-04T11:20:50.875Z,31.90
2022-09-04T11:24:13.438Z,31.50
2022-09-04T11:27:49.389Z,30.50
2022-09-04T11:30:22.499Z,30.20
2022-09-04T11:33:45.034Z,30.00
2022-09-04T11:37:12.117Z,30.50
2022-09-04T11:40:32.672Z,31.00
2022-09-04T11:43:24.205Z,31.40
2022-09-04T11:46:26.275Z,32.20
2022-09-04T11:49:23.932Z,32.70
2022-09-04T11:52:16.430Z,33.20
2022-09-04T11:55:19.161Z,33.40
2022-09-04T11:58:30.036Z,33.90
2022-09-04T12:01:16.334Z,34.10
2022-09-04T12:04:20.394Z,34.20
2022-09-04T12:07:14.192Z,33.80
2022-09-04T12:10:21.476Z,34.60
2022-09-04T12:13:19.372Z,34.80
2022-09-04T12:16:38.705Z,34.80
2022-09-04T12:20:07.240Z,34.10
2022-09-04T12:23:18.422Z,34.10
2022-09-04T12:26:32.964Z,33.70
2022-09-04T12:29:59.280Z,33.70
2022-09-04T12:32:57.668Z,33.80
2022-09-04T12:36:18.528Z,34.40
2022-09-04T12:39:27.203Z,34.90
2022-09-04T12:42:09.019Z,35.00
2022-09-04T12:45:02.138Z,35.40
2022-09-04T12:47:46.988Z,35.30
2022-09-04T12:50:28.307Z,35.50
2022-09-04T12:53:37.301Z,36.00
2022-09-04T12:56:15.774Z,36.10
2022-09-04T12:59:16.364Z,36.30
2022-09-04T13:02:01.733Z,35.90
2022-09-04T13:04:42.248Z,35.90
2022-09-04T13:07:38.699Z,36.20
2022-09-04T13:10:25.050Z,36.80
2022-09-04T13:13:07.700Z,37.20
2022-09-04T13:15:52.748Z,37.90
2022-09-04T13:18:48.813Z,37.80
2022-09-04T13:21:33.878Z,37.80
2022-09-04T13:24:25.569Z,37.90
2022-09-04T13:27:15.936Z,38.30
2022-09-04T13:30:03.481Z,38.70
2022-09-04T13:33:06.303Z,38.80
2022-09-04T13:35:59.067Z,38.30
2022-09-04T13:39:07.207Z,38.40
2022-09-04T13:42:09.806Z,38.70
2022-09-04T13:45:06.779Z,38.90
2022-09-04T13:48:01.125Z,38.70
2022-09-04T13:50:36.241Z,38.60
2022-09-04T13:53:16.657Z,38.60
2022-09-04T13:55:54.363Z,38.20
2022-09-04T13:58:30.105Z,38.50
2022-09-04T14:01:07.258Z,38.90
2022-09-04T14:03:46.243Z,39.60
2022-09-04T14:06:18.810Z,39.90
2022-09-04T14:09:04.932Z,39.60
2022-09-04T14:12:09.526Z,39.70
2022-09-04T14:15:13.687Z,39.20
2022-09-04T14:17:56.452Z,39.90
2022-09-04T14:20:34.532Z,39.90
2022-09-04T14:23:20.312Z,40.10
2022-09-04T14:26:00.909Z,40.50
2022-09-04T14:28:42.432Z,40.30
2022-09-04T14:31:24.253Z,39.90
2022-09-04T14:34:05.150Z,39.70
2022-09-04T14:36:55.267Z,40.00
2022-09-04T14:39:37.486Z,40.40
2022-09-04T14:42:31.766Z,39.80
2022-09-04T14:45:19.328Z,39.60
2022-09-04T14:47:54.906Z,39.00
2022-09-04T14:50:28.579Z,39.10
2022-09-04T14:53:03.732Z,39.00
2022-09-04T14:55:36.244Z,39.30
2022-09-04T14:58:14.626Z,39.20
2022-09-04T15:01:02.671Z,39.30
2022-09-04T15:03:45.636Z,39.50
2022-09-04T15:06:21.363Z,39.10
2022-09-04T15:08:56.753Z,39.50
2022-09-04T15:11:33.371Z,39.50
2022-09-04T15:14:09.219Z,39.20
2022-09-04T15:16:52.004Z,39.40
2022-09-04T15:19:36.763Z,39.10
2022-09-04T15:22:12.153Z,38.90
2022-09-04T15:24:56.484Z,38.90
2022-09-04T15:27:37.532Z,38.60
2022-09-04T15:30:12.564Z,37.70
2022-09-04T15:32:43.614Z,36.80
2022-09-04T15:35:27.570Z,36.30
2022-09-04T15:38:12.754Z,35.80
2022-09-04T15:41:15.143Z,35.30
2022-09-04T15:43:46.285Z,34.70
2022-09-04T15:46:27.324Z,34.90
2022-09-04T15:49:19.844Z,35.40
2022-09-04T15:51:55.105Z,34.10
2022-09-04T15:54:33.126Z,35.60
2022-09-04T15:57:14.737Z,34.70
2022-09-04T15:59:52.251Z,36.00
2022-09-04T16:02:36.592Z,35.60
2022-09-04T16:05:23.120Z,35.60
2022-09-04T16:08:05.400Z,35.20
2022-09-04T16:10:53.410Z,34.80
2022-09-04T16:13:58.110Z,34.10
2022-09-04T16:16:35.249Z,33.60
2022-09-04T16:19:15.982Z,32.90
2022-09-04T16:21:58.816Z,32.30
2022-09-04T16:24:36.150Z,32.30
2022-09-04T16:27:10.882Z,32.40
2022-09-04T16:29:47.750Z,32.30
2022-09-04T16:32:24.438Z,32.00
2022-09-04T16:35:00.491Z,32.20
2022-09-04T16:37:37.670Z,31.90
2022-09-04T16:40:24.374Z,31.50
2022-09-04T16:43:00.139Z,31.30
2022-09-04T16:45:38.357Z,31.40
2022-09-04T16:48:43.203Z,31.50
2022-09-04T16:51:39.387Z,31.10
2022-09-04T16:54:10.164Z,30.60
2022-09-04T16:56:42.910Z,30.10
2022-09-04T16:59:23.652Z,29.60
2022-09-04T17:02:02.753Z,29.80
2022-09-04T17:04:48.423Z,29.40
2022-09-04T17:07:26.110Z,27.70
2022-09-04T17:10:03.723Z,28.50
2022-09-04T17:12:48.312Z,28.30
2022-09-04T17:15:32.005Z,27.90
2022-09-04T17:18:07.873Z,27.90
2022-09-04T17:22:40.455Z,27.20
2022-09-04T17:28:55.228Z,26.70
2022-09-04T17:29:02.194Z,26.10
2022-09-04T17:29:44.589Z,25.40
2022-09-04T17:36:16.331Z,24.80
2022-09-04T17:40:33.570Z,24.30
2022-09-04T17:40:50.145Z,23.80
2022-09-04T17:41:52.083Z,23.60
2022-09-04T17:44:46.239Z,23.40
2022-09-04T17:47:32.834Z,22.70
2022-09-04T17:50:03.324Z,22.80
2022-09-04T17:52:39.304Z,21.20
2022-09-04T17:55:14.127Z,22.50
2022-09-04T17:58:00.163Z,22.40
2022-09-04T18:00:40.410Z,22.00
2022-09-04T18:03:26.770Z,22.00
2022-09-04T18:06:08.717Z,21.80
2022-09-04T18:08:53.812Z,21.70
2022-09-04T18:11:30.687Z,21.70
2022-09-04T18:14:13.617Z,21.60
2022-09-04T18:17:12.868Z,21.40
2022-09-04T18:19:47.921Z,21.40
2022-09-04T18:22:33.207Z,21.20
2022-09-04T18:25:16.345Z,20.70
2022-09-04T18:28:11.717Z,21.10
2022-09-04T18:37:06.096Z,20.80
2022-09-04T18:37:21.498Z,20.80
2022-09-04T18:37:46.637Z,20.70
2022-09-04T18:40:12.845Z,20.50
2022-09-04T18:49:51.067Z,20.30
2022-09-04T18:50:36.799Z,19.60
2022-09-04T18:50:48.817Z,20.30
2022-09-04T18:51:51.279Z,20.10
2022-09-04T18:54:30.419Z,20.00
2022-09-04T18:57:14.631Z,19.90
2022-09-04T18:59:46.091Z,19.50
2022-09-04T19:02:29.699Z,19.80
2022-09-04T19:05:03.430Z,19.70
2022-09-04T19:07:38.265Z,19.70
2022-09-04T19:10:23.134Z,19.60
2022-09-04T19:13:03.936Z,19.60
2022-09-04T19:16:02.035Z,19.40
2022-09-04T19:18:47.353Z,19.40
2022-09-04T19:21:36.441Z,19.40
2022-09-04T19:24:24.961Z,19.30
2022-09-04T19:27:26.679Z,19.40
2022-09-04T19:30:18.644Z,19.00
2022-09-04T19:33:06.070Z,18.90
2022-09-04T19:35:48.639Z,18.90
2022-09-04T19:42:20.129Z,18.40
2022-09-04T19:46:08.897Z,18.90
2022-09-04T19:46:26.209Z,18.90
2022-09-04T19:47:37.343Z,18.90
2022-09-04T19:53:17.968Z,18.80
2022-09-04T19:53:38.561Z,18.90
2022-09-04T19:56:26.484Z,18.80
2022-09-04T19:59:04.688Z,18.70
2022-09-04T20:01:47.578Z,18.60
2022-09-04T20:04:37.266Z,18.50
2022-09-04T20:07:23.408Z,18.40
2022-09-04T20:09:57.352Z,18.40
2022-09-04T20:12:32.561Z,17.80
2022-09-04T20:15:12.191Z,18.40
2022-09-04T20:18:04.040Z,18.40
2022-09-04T20:20:48.200Z,18.30
2022-09-04T20:23:37.677Z,16.60
2022-09-04T20:26:13.614Z,17.80
2022-09-04T20:28:56.519Z,17.90
2022-09-04T20:31:51.707Z,17.40
2022-09-04T20:34:32.397Z,17.90
2022-09-04T20:37:30.578Z,18.00
2022-09-04T20:40:19.949Z,17.60
2022-09-04T20:43:11.059Z,17.80
2022-09-04T20:49:35.300Z,17.80
2022-09-04T20:52:54.188Z,17.70
2022-09-04T20:53:05.003Z,17.70
2022-09-04T20:55:15.206Z,16.40
2022-09-04T21:02:34.683Z,16.40
2022-09-04T21:03:20.092Z,16.50
2022-09-04T21:04:41.939Z,17.70
2022-09-04T21:07:28.144Z,17.80
2022-09-04T21:10:12.134Z,16.30
2022-09-04T21:12:48.882Z,17.60
2022-09-04T21:15:41.656Z,16.10
2022-09-04T21:18:38.019Z,17.60
2022-09-04T21:21:38.284Z,17.60
2022-09-04T21:24:43.317Z,16.70
2022-09-04T21:27:46.755Z,17.60
2022-09-04T21:30:19.491Z,17.60
2022-09-04T21:33:27.855Z,17.50
2022-09-04T21:36:25.853Z,16.00
2022-09-04T21:39:49.547Z,17.20
2022-09-04T21:42:52.782Z,17.10
2022-09-04T21:45:36.023Z,17.10
2022-09-04T21:48:42.527Z,16.90
2022-09-04T21:51:46.000Z,17.20
2022-09-04T21:56:53.481Z,17.20
2022-09-04T22:02:40.790Z,17.30
2022-09-04T22:02:44.600Z,17.20
2022-09-04T22:04:55.445Z,17.30
2022-09-04T22:11:30.065Z,16.50
2022-09-04T22:13:33.047Z,17.30
2022-09-04T22:13:50.367Z,17.00
2022-09-04T22:16:53.250Z,16.90
2022-09-04T22:20:02.560Z,17.00
2022-09-04T22:23:20.187Z,17.00
2022-09-04T22:26:23.141Z,17.00
2022-09-04T22:29:15.730Z,17.00
2022-09-04T22:32:20.427Z,17.10
2022-09-04T22:35:42.448Z,17.00
2022-09-04T22:38:37.416Z,17.00
2022-09-04T22:41:36.980Z,16.70
2022-09-04T22:44:24.154Z,16.80
2022-09-04T22:47:38.029Z,16.90
2022-09-04T22:50:50.395Z,16.90
2022-09-04T22:54:01.610Z,16.90
2022-09-04T22:56:52.840Z,15.00
2022-09-04T23:00:06.429Z,16.80
2022-09-04T23:03:33.310Z,16.80
2022-09-04T23:13:01.348Z,16.70
2022-09-04T23:13:52.745Z,16.70
2022-09-04T23:13:58.480Z,15.90
2022-09-04T23:16:57.052Z,16.70
2022-09-04T23:24:28.561Z,16.70
2022-09-04T23:26:44.990Z,16.50
2022-09-04T23:27:28.600Z,16.50
2022-09-04T23:30:12.569Z,16.40
2022-09-04T23:33:49.719Z,16.50
2022-09-04T23:36:45.110Z,16.50
2022-09-04T23:40:03.369Z,16.50
2022-09-04T23:43:18.874Z,16.30
2022-09-04T23:46:26.757Z,16.40
2022-09-04T23:49:26.642Z,16.30
2022-09-04T23:52:07.992Z,16.40
2022-09-04T23:55:15.225Z,16.40
2022-09-04T23:57:56.394Z,16.20
